sensor_id;sensor_type;location;lat;lon;timestamp;pressure;altitude;pressure_sealevel;temperature;humidity
69219;BME280;56232;53.384;-2.732;2023-03-21T00:00:38;100401.42;;;10.04;43.30
69219;BME280;56232;53.384;-2.732;2023-03-21T00:03:03;100400.92;;;10.15;43.62
69219;BME280;56232;53.384;-2.732;2023-03-21T00:05:28;100399.31;;;10.85;43.40
69219;BME280;56232;53.384;-2.732;2023-03-21T00:07:54;100393.77;;;10.92;43.53
69219;BME280;56232;53.384;-2.732;2023-03-21T00:10:20;100392.67;;;10.95;43.28
69219;BME280;56232;53.384;-2.732;2023-03-21T00:12:45;100389.06;;;10.27;43.55
69219;BME280;56232;53.384;-2.732;2023-03-21T00:15:11;100391.97;;;10.30;43.32
69219;BME280;56232;53.384;-2.732;2023-03-21T00:17:36;100396.89;;;10.97;43.47
69219;BME280;56232;53.384;-2.732;2023-03-21T00:20:03;100388.89;;;10.45;43.24
69219;BME280;56232;53.384;-2.732;2023-03-21T00:22:28;100390.24;;;10.56;43.13
69219;BME280;56232;53.384;-2.732;2023-03-21T00:24:53;100383.11;;;10.56;43.16
69219;BME280;56232;53.384;-2.732;2023-03-21T00:27:19;100378.53;;;11.17;43.34
69219;BME280;56232;53.384;-2.732;2023-03-21T00:29:45;100375.61;;;10.58;43.15
69219;BME280;56232;53.384;-2.732;2023-03-21T00:32:10;100368.72;;;11.25;43.08
69219;BME280;56232;53.384;-2.732;2023-03-21T00:34:36;100361.10;;;10.51;43.05
69219;BME280;56232;53.384;-2.732;2023-03-21T00:37:01;100353.68;;;10.46;42.98
69219;BME280;56232;53.384;-2.732;2023-03-21T00:39:27;100352.60;;;10.98;43.08
69219;BME280;56232;53.384;-2.732;2023-03-21T00:41:53;100349.83;;;10.86;42.97
69219;BME280;56232;53.384;-2.732;2023-03-21T00:44:18;100346.73;;;10.72;43.24
69219;BME280;56232;53.384;-2.732;2023-03-21T00:46:44;100342.95;;;10.15;43.16
69219;BME280;56232;53.384;-2.732;2023-03-21T00:49:10;100335.78;;;10.70;43.08
69219;BME280;56232;53.384;-2.732;2023-03-21T00:51:35;100332.12;;;10.58;43.26
69219;BME280;56232;53.384;-2.732;2023-03-21T00:54:01;100328.84;;;9.95;43.49
69219;BME280;56232;53.384;-2.732;2023-03-21T00:56:27;100320.79;;;10.51;43.70
69219;BME280;56232;53.384;-2.732;2023-03-21T00:58:52;100313.23;;;10.60;43.62
69219;BME280;56232;53.384;-2.732;2023-03-21T01:01:18;100312.46;;;9.98;43.53
69219;BME280;56232;53.384;-2.732;2023-03-21T01:03:44;100305.51;;;10.54;43.51
69219;BME280;56232;53.384;-2.732;2023-03-21T01:06:10;100300.97;;;10.49;43.38
69219;BME280;56232;53.384;-2.732;2023-03-21T01:08:37;100295.32;;;9.86;43.42
69219;BME280;56232;53.384;-2.732;2023-03-21T01:11:03;100297.70;;;10.36;43.51
69219;BME280;56232;53.384;-2.732;2023-03-21T01:13:27;100299.86;;;10.31;43.35
69219;BME280;56232;53.384;-2.732;2023-03-21T01:15:54;100300.67;;;10.22;43.50
69219;BME280;56232;53.384;-2.732;2023-03-21T01:18:20;100302.10;;;9.67;43.85
69219;BME280;56232;53.384;-2.732;2023-03-21T01:20:44;100297.26;;;10.85;43.80
69219;BME280;56232;53.384;-2.732;2023-03-21T01:23:10;100299.94;;;10.39;43.73
69219;BME280;56232;53.384;-2.732;2023-03-21T01:25:34;100288.80;;;9.52;43.86
69219;BME280;56232;53.384;-2.732;2023-03-21T01:27:59;100281.10;;;10.03;43.90
69219;BME280;56232;53.384;-2.732;2023-03-21T01:30:26;100280.47;;;11.08;44.32
69219;BME280;56232;53.384;-2.732;2023-03-21T01:32:50;100280.59;;;9.99;44.11
69219;BME280;56232;53.384;-2.732;2023-03-21T01:35:16;100275.56;;;9.38;44.15
69219;BME280;56232;53.384;-2.732;2023-03-21T01:37:42;100281.79;;;9.98;44.42
69219;BME280;56232;53.384;-2.732;2023-03-21T01:40:10;100277.99;;;9.99;43.72
69219;BME280;56232;53.384;-2.732;2023-03-21T01:42:33;100272.78;;;9.29;43.92
69219;BME280;56232;53.384;-2.732;2023-03-21T01:45:01;100269.97;;;9.93;43.47
69219;BME280;56232;53.384;-2.732;2023-03-21T01:47:25;100274.86;;;10.26;43.84
69219;BME280;56232;53.384;-2.732;2023-03-21T01:49:52;100270.59;;;9.77;43.68
69219;BME280;56232;53.384;-2.732;2023-03-21T01:52:17;100267.08;;;10.38;43.93
69219;BME280;56232;53.384;-2.732;2023-03-21T01:54:42;100271.49;;;9.97;43.56
69219;BME280;56232;53.384;-2.732;2023-03-21T01:57:09;100266.27;;;10.01;43.46
69219;BME280;56232;53.384;-2.732;2023-03-21T01:59:36;100273.71;;;10.16;43.36
69219;BME280;56232;53.384;-2.732;2023-03-21T02:02:01;100267.22;;;11.24;43.45
69219;BME280;56232;53.384;-2.732;2023-03-21T02:04:25;100263.18;;;10.30;43.58
69219;BME280;56232;53.384;-2.732;2023-03-21T02:06:52;100261.41;;;10.27;43.40
69219;BME280;56232;53.384;-2.732;2023-03-21T02:09:17;100260.07;;;10.20;43.59
69219;BME280;56232;53.384;-2.732;2023-03-21T02:11:42;100260.11;;;10.24;43.33
69219;BME280;56232;53.384;-2.732;2023-03-21T02:14:05;100256.82;;;11.19;43.36
69219;BME280;56232;53.384;-2.732;2023-03-21T02:16:41;100255.66;;;10.08;43.52
69219;BME280;56232;53.384;-2.732;2023-03-21T02:19:01;100255.48;;;10.13;42.98
69219;BME280;56232;53.384;-2.732;2023-03-21T02:21:32;100253.86;;;9.55;43.46
69219;BME280;56232;53.384;-2.732;2023-03-21T02:28:44;100244.02;;;10.22;43.17
69219;BME280;56232;53.384;-2.732;2023-03-21T02:31:14;100248.45;;;10.25;43.23
69219;BME280;56232;53.384;-2.732;2023-03-21T02:33:44;100238.74;;;10.20;43.28
69219;BME280;56232;53.384;-2.732;2023-03-21T02:36:13;100237.55;;;10.27;43.23
69219;BME280;56232;53.384;-2.732;2023-03-21T02:38:26;100239.69;;;10.27;43.08
69219;BME280;56232;53.384;-2.732;2023-03-21T02:40:52;100239.63;;;9.63;43.48
69219;BME280;56232;53.384;-2.732;2023-03-21T02:43:17;100234.11;;;10.22;43.39
69219;BME280;56232;53.384;-2.732;2023-03-21T02:45:43;100231.41;;;10.14;43.47
69219;BME280;56232;53.384;-2.732;2023-03-21T02:48:08;100224.66;;;9.61;43.56
69219;BME280;56232;53.384;-2.732;2023-03-21T02:50:33;100218.61;;;10.46;43.56
69219;BME280;56232;53.384;-2.732;2023-03-21T02:52:56;100216.39;;;10.42;43.23
69219;BME280;56232;53.384;-2.732;2023-03-21T02:55:24;100211.17;;;9.87;43.16
69219;BME280;56232;53.384;-2.732;2023-03-21T02:57:48;100219.64;;;10.45;43.18
69219;BME280;56232;53.384;-2.732;2023-03-21T03:00:16;100210.92;;;10.52;43.40
69219;BME280;56232;53.384;-2.732;2023-03-21T03:02:38;100212.36;;;10.66;43.43
69219;BME280;56232;53.384;-2.732;2023-03-21T03:05:11;100210.75;;;10.00;42.94
69219;BME280;56232;53.384;-2.732;2023-03-21T03:07:36;100207.03;;;10.49;43.04
69219;BME280;56232;53.384;-2.732;2023-03-21T03:10:04;100207.21;;;10.32;43.23
69219;BME280;56232;53.384;-2.732;2023-03-21T03:12:26;100205.63;;;11.12;43.13
69219;BME280;56232;53.384;-2.732;2023-03-21T03:14:51;100213.83;;;9.82;43.33
69219;BME280;56232;53.384;-2.732;2023-03-21T03:17:19;100208.35;;;9.16;43.39
69219;BME280;56232;53.384;-2.732;2023-03-21T03:19:45;100201.80;;;9.71;43.25
69219;BME280;56232;53.384;-2.732;2023-03-21T03:22:08;100197.17;;;10.81;43.44
69219;BME280;56232;53.384;-2.732;2023-03-21T03:24:31;100187.58;;;10.70;43.29
69219;BME280;56232;53.384;-2.732;2023-03-21T03:26:57;100179.28;;;10.71;43.69
69219;BME280;56232;53.384;-2.732;2023-03-21T03:29:20;100175.13;;;9.58;43.08
69219;BME280;56232;53.384;-2.732;2023-03-21T03:31:48;100171.31;;;9.51;43.57
69219;BME280;56232;53.384;-2.732;2023-03-21T03:34:14;100170.91;;;10.55;43.42
69219;BME280;56232;53.384;-2.732;2023-03-21T03:36:39;100177.44;;;9.85;43.39
69219;BME280;56232;53.384;-2.732;2023-03-21T03:39:05;100173.03;;;9.76;43.70
69219;BME280;56232;53.384;-2.732;2023-03-21T03:41:28;100172.22;;;9.62;43.51
69219;BME280;56232;53.384;-2.732;2023-03-21T03:43:56;100172.91;;;9.57;44.00
69219;BME280;56232;53.384;-2.732;2023-03-21T03:46:27;100172.17;;;9.73;43.89
69219;BME280;56232;53.384;-2.732;2023-03-21T03:48:48;100169.60;;;10.51;43.60
69219;BME280;56232;53.384;-2.732;2023-03-21T03:51:15;100163.30;;;10.57;43.61
69219;BME280;56232;53.384;-2.732;2023-03-21T03:53:40;100163.21;;;9.37;43.98
69219;BME280;56232;53.384;-2.732;2023-03-21T03:56:03;100156.87;;;9.25;44.20
69219;BME280;56232;53.384;-2.732;2023-03-21T03:58:28;100154.95;;;9.20;44.27
69219;BME280;56232;53.384;-2.732;2023-03-21T04:00:59;100154.02;;;9.65;44.01
69219;BME280;56232;53.384;-2.732;2023-03-21T04:03:19;100150.34;;;9.68;44.44
69219;BME280;56232;53.384;-2.732;2023-03-21T04:05:45;100146.09;;;10.35;43.83
69219;BME280;56232;53.384;-2.732;2023-03-21T04:08:11;100146.13;;;9.34;43.93
69219;BME280;56232;53.384;-2.732;2023-03-21T04:10:36;100147.07;;;9.87;44.22
69219;BME280;56232;53.384;-2.732;2023-03-21T04:13:02;100142.69;;;10.54;44.14
69219;BME280;56232;53.384;-2.732;2023-03-21T04:15:27;100134.19;;;9.41;44.17
69219;BME280;56232;53.384;-2.732;2023-03-21T04:17:53;100129.77;;;9.27;43.94
69219;BME280;56232;53.384;-2.732;2023-03-21T04:20:19;100123.46;;;9.71;43.98
69219;BME280;56232;53.384;-2.732;2023-03-21T04:22:44;100115.75;;;8.94;43.89
69219;BME280;56232;53.384;-2.732;2023-03-21T04:25:10;100112.04;;;9.11;44.49
69219;BME280;56232;53.384;-2.732;2023-03-21T04:27:35;100105.57;;;8.93;44.04
69219;BME280;56232;53.384;-2.732;2023-03-21T04:30:01;100107.75;;;9.41;44.72
69219;BME280;56232;53.384;-2.732;2023-03-21T04:32:27;100110.31;;;9.23;44.35
69219;BME280;56232;53.384;-2.732;2023-03-21T04:34:52;100110.40;;;8.50;44.60
69219;BME280;56232;53.384;-2.732;2023-03-21T04:37:20;100107.95;;;9.00;44.67
69219;BME280;56232;53.384;-2.732;2023-03-21T04:39:44;100103.87;;;9.04;45.14
69219;BME280;56232;53.384;-2.732;2023-03-21T04:42:09;100102.36;;;9.05;45.06
69219;BME280;56232;53.384;-2.732;2023-03-21T04:44:35;100100.57;;;8.93;45.03
69219;BME280;56232;53.384;-2.732;2023-03-21T04:47:01;100094.86;;;8.37;44.89
69219;BME280;56232;53.384;-2.732;2023-03-21T04:49:31;100092.82;;;8.94;44.72
69219;BME280;56232;53.384;-2.732;2023-03-21T04:51:52;100093.33;;;8.85;44.99
69219;BME280;56232;53.384;-2.732;2023-03-21T04:54:18;100089.84;;;8.82;44.94
69219;BME280;56232;53.384;-2.732;2023-03-21T04:56:43;100078.86;;;8.70;44.42
69219;BME280;56232;53.384;-2.732;2023-03-21T04:59:11;100084.06;;;9.11;44.94
69219;BME280;56232;53.384;-2.732;2023-03-21T05:01:35;100082.73;;;9.12;45.19
69219;BME280;56232;53.384;-2.732;2023-03-21T05:04:01;100085.30;;;8.68;45.33
69219;BME280;56232;53.384;-2.732;2023-03-21T05:06:27;100085.98;;;8.83;45.26
69219;BME280;56232;53.384;-2.732;2023-03-21T05:08:52;100089.09;;;8.46;45.38
69219;BME280;56232;53.384;-2.732;2023-03-21T05:11:17;100087.55;;;9.75;45.23
69219;BME280;56232;53.384;-2.732;2023-03-21T05:13:43;100085.64;;;9.39;45.37
69219;BME280;56232;53.384;-2.732;2023-03-21T05:16:09;100082.59;;;9.77;44.91
69219;BME280;56232;53.384;-2.732;2023-03-21T05:18:35;100074.13;;;9.27;44.51
69219;BME280;56232;53.384;-2.732;2023-03-21T05:21:00;100076.69;;;9.93;44.06
69219;BME280;56232;53.384;-2.732;2023-03-21T05:23:26;100069.22;;;9.88;43.78
69219;BME280;56232;53.384;-2.732;2023-03-21T05:25:51;100073.86;;;9.27;43.75
69219;BME280;56232;53.384;-2.732;2023-03-21T05:28:17;100070.48;;;9.23;44.14
69219;BME280;56232;53.384;-2.732;2023-03-21T05:30:43;100067.09;;;9.90;44.04
69219;BME280;56232;53.384;-2.732;2023-03-21T05:33:09;100065.37;;;8.93;43.97
69219;BME280;56232;53.384;-2.732;2023-03-21T05:35:34;100060.74;;;9.98;44.45
69219;BME280;56232;53.384;-2.732;2023-03-21T05:38:00;100059.09;;;9.70;44.40
69219;BME280;56232;53.384;-2.732;2023-03-21T05:40:27;100060.12;;;9.45;44.69
69219;BME280;56232;53.384;-2.732;2023-03-21T05:42:51;100061.10;;;9.30;45.19
69219;BME280;56232;53.384;-2.732;2023-03-21T05:45:17;100046.86;;;8.99;45.91
69219;BME280;56232;53.384;-2.732;2023-03-21T05:47:43;100034.19;;;8.81;45.31
69219;BME280;56232;53.384;-2.732;2023-03-21T05:50:09;100037.90;;;8.60;45.34
69219;BME280;56232;53.384;-2.732;2023-03-21T05:52:34;100032.09;;;9.10;45.42
69219;BME280;56232;53.384;-2.732;2023-03-21T05:55:00;100031.07;;;9.16;45.70
69219;BME280;56232;53.384;-2.732;2023-03-21T05:57:26;100029.58;;;8.62;45.32
69219;BME280;56232;53.384;-2.732;2023-03-21T05:59:51;100031.25;;;9.00;45.71
69219;BME280;56232;53.384;-2.732;2023-03-21T06:02:16;100029.33;;;8.49;46.20
69219;BME280;56232;53.384;-2.732;2023-03-21T06:04:42;100027.74;;;8.52;46.03
69219;BME280;56232;53.384;-2.732;2023-03-21T06:07:08;100029.63;;;8.99;45.83
69219;BME280;56232;53.384;-2.732;2023-03-21T06:09:33;100020.64;;;8.71;45.84
69219;BME280;56232;53.384;-2.732;2023-03-21T06:11:59;100020.55;;;8.98;44.94
69219;BME280;56232;53.384;-2.732;2023-03-21T06:14:26;100014.07;;;9.44;44.97
69219;BME280;56232;53.384;-2.732;2023-03-21T06:16:50;100012.04;;;9.07;44.87
69219;BME280;56232;53.384;-2.732;2023-03-21T06:19:16;100009.66;;;9.60;45.18
69219;BME280;56232;53.384;-2.732;2023-03-21T06:21:42;100011.27;;;9.68;45.21
69219;BME280;56232;53.384;-2.732;2023-03-21T06:24:08;100007.89;;;9.28;44.93
69219;BME280;56232;53.384;-2.732;2023-03-21T06:26:33;100008.35;;;8.73;44.96
69219;BME280;56232;53.384;-2.732;2023-03-21T06:28:59;100010.78;;;9.44;45.08
69219;BME280;56232;53.384;-2.732;2023-03-21T06:31:26;100016.76;;;9.61;45.07
69219;BME280;56232;53.384;-2.732;2023-03-21T06:33:50;100018.01;;;9.62;45.11
69219;BME280;56232;53.384;-2.732;2023-03-21T06:36:16;100012.81;;;9.72;44.89
69219;BME280;56232;53.384;-2.732;2023-03-21T06:38:41;100010.01;;;8.69;44.79
69219;BME280;56232;53.384;-2.732;2023-03-21T06:41:08;100008.98;;;9.41;44.45
69219;BME280;56232;53.384;-2.732;2023-03-21T06:43:33;100015.64;;;9.22;44.56
69219;BME280;56232;53.384;-2.732;2023-03-21T06:45:59;100004.49;;;9.54;43.82
69219;BME280;56232;53.384;-2.732;2023-03-21T06:48:24;99993.87;;;11.27;43.56
69219;BME280;56232;53.384;-2.732;2023-03-21T06:50:50;99989.24;;;9.79;43.45
69219;BME280;56232;53.384;-2.732;2023-03-21T06:53:16;99989.49;;;10.67;42.57
69219;BME280;56232;53.384;-2.732;2023-03-21T06:55:41;99993.62;;;10.78;42.74
69219;BME280;56232;53.384;-2.732;2023-03-21T06:58:06;99995.88;;;10.57;42.75
69219;BME280;56232;53.384;-2.732;2023-03-21T07:00:32;99990.26;;;10.64;42.48
69219;BME280;56232;53.384;-2.732;2023-03-21T07:02:58;99981.04;;;10.02;42.32
69219;BME280;56232;53.384;-2.732;2023-03-21T07:05:24;99979.85;;;10.48;42.57
69219;BME280;56232;53.384;-2.732;2023-03-21T07:07:49;99983.95;;;9.84;43.03
69219;BME280;56232;53.384;-2.732;2023-03-21T07:10:15;99983.08;;;10.62;42.44
69219;BME280;56232;53.384;-2.732;2023-03-21T07:12:40;99986.03;;;10.60;42.73
69219;BME280;56232;53.384;-2.732;2023-03-21T07:15:07;99986.55;;;10.73;42.88
69219;BME280;56232;53.384;-2.732;2023-03-21T07:17:32;99985.39;;;10.77;42.81
69219;BME280;56232;53.384;-2.732;2023-03-21T07:19:58;99985.39;;;10.31;42.78
69219;BME280;56232;53.384;-2.732;2023-03-21T07:22:24;99987.31;;;10.95;42.76
69219;BME280;56232;53.384;-2.732;2023-03-21T07:24:49;99990.11;;;10.51;42.43
69219;BME280;56232;53.384;-2.732;2023-03-21T07:27:14;99990.12;;;10.10;42.24
69219;BME280;56232;53.384;-2.732;2023-03-21T07:29:40;99993.06;;;11.38;42.94
69219;BME280;56232;53.384;-2.732;2023-03-21T07:32:06;99986.82;;;11.02;42.45
69219;BME280;56232;53.384;-2.732;2023-03-21T07:34:31;99989.32;;;10.88;41.97
69219;BME280;56232;53.384;-2.732;2023-03-21T07:36:57;99983.63;;;10.63;41.96
69219;BME280;56232;53.384;-2.732;2023-03-21T07:39:22;99985.70;;;11.24;42.70
69219;BME280;56232;53.384;-2.732;2023-03-21T07:41:48;99984.22;;;10.75;42.15
69219;BME280;56232;53.384;-2.732;2023-03-21T07:44:14;99985.88;;;11.44;42.20
69219;BME280;56232;53.384;-2.732;2023-03-21T07:46:39;99991.43;;;11.52;42.26
69219;BME280;56232;53.384;-2.732;2023-03-21T07:49:05;99989.08;;;10.34;41.93
69219;BME280;56232;53.384;-2.732;2023-03-21T07:51:31;99987.82;;;10.35;42.28
69219;BME280;56232;53.384;-2.732;2023-03-21T07:53:56;99984.75;;;10.99;42.04
69219;BME280;56232;53.384;-2.732;2023-03-21T07:56:22;99975.28;;;11.68;41.99
69219;BME280;56232;53.384;-2.732;2023-03-21T07:58:48;99978.76;;;11.11;41.75
69219;BME280;56232;53.384;-2.732;2023-03-21T08:01:13;99978.80;;;11.17;41.71
69219;BME280;56232;53.384;-2.732;2023-03-21T08:03:39;99968.62;;;11.17;41.78
69219;BME280;56232;53.384;-2.732;2023-03-21T08:06:05;99967.06;;;10.97;41.69
69219;BME280;56232;53.384;-2.732;2023-03-21T08:08:31;99965.37;;;11.90;41.30
69219;BME280;56232;53.384;-2.732;2023-03-21T08:10:56;99964.05;;;12.78;40.84
69219;BME280;56232;53.384;-2.732;2023-03-21T08:13:22;99964.89;;;12.54;40.95
69219;BME280;56232;53.384;-2.732;2023-03-21T08:15:47;99968.87;;;12.03;41.11
69219;BME280;56232;53.384;-2.732;2023-03-21T08:18:13;99970.33;;;11.98;41.70
69219;BME280;56232;53.384;-2.732;2023-03-21T08:20:38;99971.82;;;11.19;42.02
69219;BME280;56232;53.384;-2.732;2023-03-21T08:23:04;99969.09;;;11.13;42.76
69219;BME280;56232;53.384;-2.732;2023-03-21T08:25:30;99966.64;;;11.72;42.33
69219;BME280;56232;53.384;-2.732;2023-03-21T08:27:55;99965.36;;;12.21;41.87
69219;BME280;56232;53.384;-2.732;2023-03-21T08:30:23;99967.39;;;12.60;41.25
69219;BME280;56232;53.384;-2.732;2023-03-21T08:32:47;99971.19;;;11.93;42.21
69219;BME280;56232;53.384;-2.732;2023-03-21T08:35:14;99981.31;;;11.70;42.05
69219;BME280;56232;53.384;-2.732;2023-03-21T08:37:39;99979.30;;;11.50;42.28
69219;BME280;56232;53.384;-2.732;2023-03-21T08:40:05;99976.75;;;11.02;42.18
69219;BME280;56232;53.384;-2.732;2023-03-21T08:42:29;99971.98;;;11.28;42.51
69219;BME280;56232;53.384;-2.732;2023-03-21T08:44:55;99969.74;;;11.13;42.93
69219;BME280;56232;53.384;-2.732;2023-03-21T08:47:21;99974.26;;;11.22;42.56
69219;BME280;56232;53.384;-2.732;2023-03-21T08:49:47;99969.29;;;11.50;42.49
69219;BME280;56232;53.384;-2.732;2023-03-21T08:52:12;99969.81;;;11.57;42.27
69219;BME280;56232;53.384;-2.732;2023-03-21T08:54:37;99968.62;;;11.01;42.23
69219;BME280;56232;53.384;-2.732;2023-03-21T08:57:03;99972.05;;;11.77;42.07
69219;BME280;56232;53.384;-2.732;2023-03-21T08:59:29;99964.80;;;11.97;41.65
69219;BME280;56232;53.384;-2.732;2023-03-21T09:01:54;99959.90;;;12.02;41.70
69219;BME280;56232;53.384;-2.732;2023-03-21T09:04:20;99960.89;;;11.01;41.23
69219;BME280;56232;53.384;-2.732;2023-03-21T09:06:46;99954.80;;;12.22;41.42
69219;BME280;56232;53.384;-2.732;2023-03-21T09:09:11;99958.80;;;12.43;41.24
69219;BME280;56232;53.384;-2.732;2023-03-21T09:11:37;99952.92;;;11.52;41.13
69219;BME280;56232;53.384;-2.732;2023-03-21T09:14:03;99943.05;;;12.98;40.57
69219;BME280;56232;53.384;-2.732;2023-03-21T09:16:28;99951.26;;;14.26;39.17
69219;BME280;56232;53.384;-2.732;2023-03-21T09:18:54;99952.56;;;13.92;38.17
69219;BME280;56232;53.384;-2.732;2023-03-21T09:21:20;99950.46;;;14.22;39.02
69219;BME280;56232;53.384;-2.732;2023-03-21T09:23:45;99946.24;;;13.92;38.97
69219;BME280;56232;53.384;-2.732;2023-03-21T09:26:11;99948.59;;;14.21;38.49
69219;BME280;56232;53.384;-2.732;2023-03-21T09:28:36;99940.20;;;14.14;38.37
69219;BME280;56232;53.384;-2.732;2023-03-21T09:31:02;99951.57;;;14.10;38.14
69219;BME280;56232;53.384;-2.732;2023-03-21T09:33:28;99939.72;;;14.70;38.00
69219;BME280;56232;53.384;-2.732;2023-03-21T09:35:54;99940.25;;;14.45;38.10
69219;BME280;56232;53.384;-2.732;2023-03-21T09:38:19;99941.12;;;15.12;37.93
69219;BME280;56232;53.384;-2.732;2023-03-21T09:40:54;99945.33;;;15.06;37.68
69219;BME280;56232;53.384;-2.732;2023-03-21T09:43:20;99951.43;;;15.25;37.39
69219;BME280;56232;53.384;-2.732;2023-03-21T09:45:39;99940.95;;;14.20;37.63
69219;BME280;56232;53.384;-2.732;2023-03-21T09:48:01;99945.61;;;15.29;37.97
69219;BME280;56232;53.384;-2.732;2023-03-21T09:50:30;99945.06;;;15.16;37.48
69219;BME280;56232;53.384;-2.732;2023-03-21T09:52:56;99943.22;;;15.43;37.05
69219;BME280;56232;53.384;-2.732;2023-03-21T09:55:21;99942.22;;;15.49;36.35
69219;BME280;56232;53.384;-2.732;2023-03-21T09:57:46;99938.22;;;15.28;35.66
69219;BME280;56232;53.384;-2.732;2023-03-21T10:00:16;99945.05;;;14.75;37.05
69219;BME280;56232;53.384;-2.732;2023-03-21T10:02:38;99947.51;;;14.95;36.88
69219;BME280;56232;53.384;-2.732;2023-03-21T10:05:03;99943.30;;;15.24;37.80
69219;BME280;56232;53.384;-2.732;2023-03-21T10:07:38;99944.05;;;15.64;37.09
69219;BME280;56232;53.384;-2.732;2023-03-21T10:09:52;99941.13;;;15.23;37.26
69219;BME280;56232;53.384;-2.732;2023-03-21T10:12:20;99936.30;;;15.45;36.95
69219;BME280;56232;53.384;-2.732;2023-03-21T10:14:47;99939.63;;;15.24;37.33
69219;BME280;56232;53.384;-2.732;2023-03-21T10:17:17;99940.76;;;16.27;37.46
69219;BME280;56232;53.384;-2.732;2023-03-21T10:19:34;99939.21;;;15.05;37.82
69219;BME280;56232;53.384;-2.732;2023-03-21T10:22:00;99944.93;;;15.42;38.06
69219;BME280;56232;53.384;-2.732;2023-03-21T10:24:27;99940.20;;;15.53;38.27
69219;BME280;56232;53.384;-2.732;2023-03-21T10:26:52;99932.99;;;14.73;38.27
69219;BME280;56232;53.384;-2.732;2023-03-21T10:29:18;99935.02;;;15.50;38.26
69219;BME280;56232;53.384;-2.732;2023-03-21T10:31:43;99938.11;;;14.55;37.05
69219;BME280;56232;53.384;-2.732;2023-03-21T10:34:14;99933.99;;;15.02;37.49
69219;BME280;56232;53.384;-2.732;2023-03-21T10:36:34;99938.00;;;16.23;36.17
69219;BME280;56232;53.384;-2.732;2023-03-21T10:39:02;99941.22;;;16.01;36.58
69219;BME280;56232;53.384;-2.732;2023-03-21T10:41:26;99939.34;;;15.64;37.62
69219;BME280;56232;53.384;-2.732;2023-03-21T10:44:05;99945.18;;;15.31;38.00
69219;BME280;56232;53.384;-2.732;2023-03-21T10:46:18;99950.01;;;15.68;37.02
69219;BME280;56232;53.384;-2.732;2023-03-21T10:48:43;99959.18;;;15.05;37.51
69219;BME280;56232;53.384;-2.732;2023-03-21T10:51:08;99955.12;;;14.53;38.28
69219;BME280;56232;53.384;-2.732;2023-03-21T10:53:37;99957.56;;;14.70;38.37
69219;BME280;56232;53.384;-2.732;2023-03-21T10:56:00;99960.42;;;15.22;37.81
69219;BME280;56232;53.384;-2.732;2023-03-21T10:58:27;99960.48;;;15.49;37.36
69219;BME280;56232;53.384;-2.732;2023-03-21T11:00:54;99965.83;;;15.28;36.29
69219;BME280;56232;53.384;-2.732;2023-03-21T11:03:21;99972.95;;;15.87;36.90
69219;BME280;56232;53.384;-2.732;2023-03-21T11:05:41;99971.76;;;15.91;37.24
69219;BME280;56232;53.384;-2.732;2023-03-21T11:08:11;99959.82;;;16.05;36.85
69219;BME280;56232;53.384;-2.732;2023-03-21T11:10:34;99966.36;;;15.94;37.12
69219;BME280;56232;53.384;-2.732;2023-03-21T11:13:03;99970.31;;;16.05;37.53
69219;BME280;56232;53.384;-2.732;2023-03-21T11:15:28;99969.22;;;16.53;37.12
69219;BME280;56232;53.384;-2.732;2023-03-21T11:17:49;99964.89;;;16.30;36.87
69219;BME280;56232;53.384;-2.732;2023-03-21T11:20:29;99963.07;;;16.00;37.16
69219;BME280;56232;53.384;-2.732;2023-03-21T11:22:42;99963.59;;;16.80;37.26
69219;BME280;56232;53.384;-2.732;2023-03-21T11:25:08;99951.32;;;16.57;36.63
69219;BME280;56232;53.384;-2.732;2023-03-21T11:27:31;99950.94;;;16.83;36.62
69219;BME280;56232;53.384;-2.732;2023-03-21T11:29:59;99945.35;;;16.74;37.50
69219;BME280;56232;53.384;-2.732;2023-03-21T11:32:25;99938.31;;;16.97;36.53
69219;BME280;56232;53.384;-2.732;2023-03-21T11:34:50;99943.00;;;17.08;36.52
69219;BME280;56232;53.384;-2.732;2023-03-21T11:37:21;99941.12;;;16.73;36.60
69219;BME280;56232;53.384;-2.732;2023-03-21T11:39:40;99941.52;;;16.31;36.55
69219;BME280;56232;53.384;-2.732;2023-03-21T11:44:32;99940.02;;;16.79;36.91
69219;BME280;56232;53.384;-2.732;2023-03-21T11:46:56;99939.95;;;16.65;37.49
69219;BME280;56232;53.384;-2.732;2023-03-21T11:49:23;99939.39;;;15.87;36.91
69219;BME280;56232;53.384;-2.732;2023-03-21T11:51:54;99938.46;;;16.60;37.44
69219;BME280;56232;53.384;-2.732;2023-03-21T11:54:16;99937.24;;;15.76;37.61
69219;BME280;56232;53.384;-2.732;2023-03-21T11:56:42;99930.81;;;16.17;37.69
69219;BME280;56232;53.384;-2.732;2023-03-21T11:59:14;99934.01;;;16.46;36.96
69219;BME280;56232;53.384;-2.732;2023-03-21T12:01:35;99929.82;;;17.43;35.95
69219;BME280;56232;53.384;-2.732;2023-03-21T12:04:03;99933.79;;;17.11;35.97
69219;BME280;56232;53.384;-2.732;2023-03-21T12:06:27;99929.99;;;17.39;36.10
69219;BME280;56232;53.384;-2.732;2023-03-21T12:08:55;99928.88;;;17.06;35.86
69219;BME280;56232;53.384;-2.732;2023-03-21T12:11:16;99927.78;;;16.96;36.53
69219;BME280;56232;53.384;-2.732;2023-03-21T12:13:47;99927.87;;;16.28;37.02
69219;BME280;56232;53.384;-2.732;2023-03-21T12:16:19;99927.88;;;16.44;36.56
69219;BME280;56232;53.384;-2.732;2023-03-21T12:18:40;99922.83;;;16.26;36.70
69219;BME280;56232;53.384;-2.732;2023-03-21T12:20:56;99925.13;;;17.28;36.62
69219;BME280;56232;53.384;-2.732;2023-03-21T12:23:31;99926.12;;;17.75;36.33
69219;BME280;56232;53.384;-2.732;2023-03-21T12:25:49;99931.17;;;17.56;36.96
69219;BME280;56232;53.384;-2.732;2023-03-21T12:28:22;99936.71;;;18.20;36.00
69219;BME280;56232;53.384;-2.732;2023-03-21T12:30:43;99936.85;;;17.82;36.07
69219;BME280;56232;53.384;-2.732;2023-03-21T12:35:39;99938.36;;;17.73;35.71
69219;BME280;56232;53.384;-2.732;2023-03-21T12:38:02;99934.49;;;17.79;35.82
69219;BME280;56232;53.384;-2.732;2023-03-21T12:40:31;99934.28;;;17.67;35.91
69219;BME280;56232;53.384;-2.732;2023-03-21T12:45:13;99931.97;;;17.90;35.90
69219;BME280;56232;53.384;-2.732;2023-03-21T12:47:40;99924.70;;;19.09;35.99
69219;BME280;56232;53.384;-2.732;2023-03-21T12:50:04;99924.66;;;18.57;35.93